createdAt,value
2023-04-18T00:01:22.944Z,101785.19
2023-04-18T00:04:08.818Z,101784.97
2023-04-18T00:06:53.903Z,101788.94
2023-04-18T00:09:38.749Z,101786.06
2023-04-18T00:12:23.738Z,101783.78
2023-04-18T00:15:09.565Z,101784.13
2023-04-18T00:17:56.592Z,101780.44
2023-04-18T00:20:41.390Z,101783.19
2023-04-18T00:23:28.221Z,101778.28
2023-04-18T00:26:13.279Z,101781.88
2023-04-18T00:28:58.457Z,101777.91
2023-04-18T00:31:43.269Z,101780.97
2023-04-18T00:34:27.997Z,101789.88
2023-04-18T00:37:12.966Z,101785.53
2023-04-18T00:39:57.742Z,101778.22
2023-04-18T00:42:42.697Z,101795.63
2023-04-18T00:45:27.426Z,101788.16
2023-04-18T00:48:12.612Z,101789.38
2023-04-18T00:50:57.855Z,101780.22
2023-04-18T00:53:44.218Z,101785.03
2023-04-18T00:56:29.745Z,101791.38
2023-04-18T00:59:15.286Z,101783.34
2023-04-18T01:02:00.491Z,101784.41
2023-04-18T01:04:46.105Z,101787.50
2023-04-18T01:07:33.287Z,101786.44
2023-04-18T01:10:18.549Z,101784.59
2023-04-18T01:13:11.620Z,101780.19
2023-04-18T01:15:56.494Z,101788.53
2023-04-18T01:18:41.427Z,101774.63
2023-04-18T01:21:26.757Z,101776.53
2023-04-18T01:24:17.065Z,101769.91
2023-04-18T01:27:05.762Z,101765.00
2023-04-18T01:29:50.526Z,101774.81
2023-04-18T01:32:35.479Z,101762.53
2023-04-18T01:35:20.715Z,101761.47
2023-04-18T01:38:05.548Z,101761.94
2023-04-18T01:40:50.759Z,101761.31
2023-04-18T01:43:35.691Z,101766.25
2023-04-18T01:46:20.810Z,101755.09
2023-04-18T01:49:05.808Z,101758.28
2023-04-18T01:51:50.669Z,101754.31
2023-04-18T01:54:35.296Z,101756.13
2023-04-18T01:57:20.477Z,101755.50
2023-04-18T02:00:06.600Z,101753.75
2023-04-18T02:02:51.500Z,101759.69
2023-04-18T02:05:37.404Z,101762.66
2023-04-18T02:08:22.431Z,101754.66
2023-04-18T02:11:07.246Z,101762.78
2023-04-18T02:13:52.299Z,101753.38
2023-04-18T02:16:37.101Z,101754.88
2023-04-18T02:19:22.362Z,101754.59
2023-04-18T02:22:07.325Z,101756.84
2023-04-18T02:24:52.404Z,101758.00
2023-04-18T02:27:37.100Z,101755.19
2023-04-18T02:30:23.066Z,101759.81
2023-04-18T02:33:08.201Z,101763.72
2023-04-18T02:35:53.153Z,101756.44
2023-04-18T02:38:38.094Z,101755.09
2023-04-18T02:41:23.647Z,101760.69
2023-04-18T02:44:08.773Z,101755.84
2023-04-18T02:46:53.586Z,101759.84
2023-04-18T02:49:38.283Z,101761.63
2023-04-18T02:52:23.270Z,101761.94
2023-04-18T02:55:08.414Z,101764.34
2023-04-18T02:57:53.487Z,101760.34
2023-04-18T03:00:38.211Z,101752.78
2023-04-18T03:03:23.406Z,101760.13
2023-04-18T03:06:08.173Z,101754.34
2023-04-18T03:08:54.684Z,101755.81
2023-04-18T03:11:39.514Z,101763.19
2023-04-18T03:14:24.572Z,101755.47
2023-04-18T03:17:09.394Z,101761.28
2023-04-18T03:19:54.685Z,101766.75
2023-04-18T03:22:39.829Z,101764.22
2023-04-18T03:25:24.650Z,101762.13
2023-04-18T03:28:09.625Z,101767.25
2023-04-18T03:30:54.758Z,101760.84
2023-04-18T03:33:39.400Z,101771.47
2023-04-18T03:36:25.339Z,101771.16
2023-04-18T03:39:10.370Z,101765.16
2023-04-18T03:41:55.591Z,101767.34
2023-04-18T03:44:40.343Z,101772.25
2023-04-18T03:47:25.528Z,101772.84
2023-04-18T03:50:10.503Z,101774.63
2023-04-18T03:52:55.647Z,101779.50
2023-04-18T03:55:41.636Z,101779.81
2023-04-18T03:58:26.630Z,101786.63
2023-04-18T04:01:12.704Z,101787.66
2023-04-18T04:03:57.575Z,101781.78
2023-04-18T04:06:43.072Z,101792.59
2023-04-18T04:09:27.942Z,101794.91
2023-04-18T04:12:12.799Z,101791.06
2023-04-18T04:14:57.986Z,101796.38
2023-04-18T04:17:43.222Z,101789.72
2023-04-18T04:20:28.500Z,101800.84
2023-04-18T04:23:13.578Z,101798.44
2023-04-18T04:25:59.172Z,101810.53
2023-04-18T04:28:46.404Z,101809.56
2023-04-18T04:31:31.739Z,101810.09
2023-04-18T04:34:16.832Z,101807.34
2023-04-18T04:37:02.495Z,101810.19
2023-04-18T04:39:47.458Z,101817.66
2023-04-18T04:42:32.189Z,101812.03
2023-04-18T04:45:17.443Z,101818.16
2023-04-18T04:48:02.328Z,101823.22
2023-04-18T04:50:58.154Z,101825.59
2023-04-18T04:53:42.912Z,101830.13
2023-04-18T04:56:28.120Z,101834.66
2023-04-18T04:59:13.252Z,101837.94
2023-04-18T05:01:58.502Z,101841.09
2023-04-18T05:04:43.785Z,101849.88
2023-04-18T05:07:28.685Z,101852.19
2023-04-18T05:10:13.623Z,101857.63
2023-04-18T05:12:58.576Z,101853.03
2023-04-18T05:15:44.053Z,101850.44
2023-04-18T05:18:29.478Z,101835.69
2023-04-18T05:21:14.798Z,101839.56
2023-04-18T05:23:59.572Z,101846.09
2023-04-18T05:26:44.378Z,101847.34
2023-04-18T05:29:29.682Z,101847.44
2023-04-18T05:32:15.221Z,101840.97
2023-04-18T05:34:59.977Z,101844.81
2023-04-18T05:37:44.728Z,101849.34
2023-04-18T05:40:30.082Z,101859.13
2023-04-18T05:43:15.563Z,101856.78
2023-04-18T05:46:00.730Z,101859.41
2023-04-18T05:48:45.704Z,101853.16
2023-04-18T05:51:31.193Z,101861.78
2023-04-18T05:54:16.885Z,101865.53
2023-04-18T05:57:04.256Z,101870.03
2023-04-18T05:59:49.362Z,101864.34
2023-04-18T06:02:34.272Z,101865.91
2023-04-18T06:05:19.265Z,101866.66
2023-04-18T06:08:04.570Z,101870.25
2023-04-18T06:10:49.625Z,101860.91
2023-04-18T06:13:34.446Z,101864.28
2023-04-18T06:16:19.692Z,101868.69
2023-04-18T06:19:05.105Z,101861.94
2023-04-18T06:21:49.903Z,101880.03
2023-04-18T06:24:34.676Z,101865.63
2023-04-18T06:27:30.526Z,101875.41
2023-04-18T06:30:16.223Z,101881.75
2023-04-18T06:33:01.609Z,101872.59
2023-04-18T06:35:46.467Z,101877.97
2023-04-18T06:38:32.242Z,101872.81
2023-04-18T06:41:16.899Z,101872.38
2023-04-18T06:44:03.481Z,101872.63
2023-04-18T06:46:49.579Z,101876.47
2023-04-18T06:49:34.732Z,101877.69
2023-04-18T06:52:19.487Z,101866.72
2023-04-18T06:55:04.480Z,101872.31
2023-04-18T06:57:49.280Z,101871.19
2023-04-18T07:00:34.230Z,101865.53
2023-04-18T07:03:19.132Z,101870.81
2023-04-18T07:06:05.689Z,101861.75
2023-04-18T07:08:51.298Z,101870.44
2023-04-18T07:11:39.025Z,101867.91
2023-04-18T07:14:24.850Z,101867.06
2023-04-18T07:17:09.667Z,101871.97
2023-04-18T07:19:54.850Z,101870.59
2023-04-18T07:22:41.064Z,101876.72
2023-04-18T07:25:25.894Z,101872.50
2023-04-18T07:28:10.811Z,101864.69
2023-04-18T07:30:56.815Z,101876.47
2023-04-18T07:33:43.258Z,101874.13
2023-04-18T07:36:28.289Z,101871.16
2023-04-18T07:39:13.161Z,101870.59
2023-04-18T07:41:58.724Z,101875.50
2023-04-18T07:44:43.796Z,101869.09
2023-04-18T07:47:30.378Z,101879.25
2023-04-18T07:50:16.184Z,101868.53
2023-04-18T07:53:01.256Z,101870.25
2023-04-18T07:55:46.496Z,101875.84
2023-04-18T07:58:31.392Z,101875.38
2023-04-18T08:01:18.413Z,101866.16
2023-04-18T08:04:03.460Z,101876.53
2023-04-18T08:06:48.234Z,101877.66
2023-04-18T08:09:34.119Z,101884.41
2023-04-18T08:12:19.000Z,101877.94
2023-04-18T08:15:04.799Z,101886.22
2023-04-18T08:17:51.370Z,101882.97
2023-04-18T08:20:37.029Z,101884.25
2023-04-18T08:23:21.662Z,101886.91
2023-04-18T08:26:06.648Z,101895.28
2023-04-18T08:28:51.570Z,101881.56
2023-04-18T08:31:36.641Z,101883.66
2023-04-18T08:34:21.929Z,101886.19
2023-04-18T08:37:07.181Z,101893.19
2023-04-18T08:39:52.177Z,101886.84
2023-04-18T08:42:38.486Z,101888.41
2023-04-18T08:45:24.159Z,101881.84
2023-04-18T08:48:13.887Z,101893.09
2023-04-18T08:50:59.532Z,101892.44
2023-04-18T08:53:45.044Z,101901.94
2023-04-18T08:56:30.749Z,101896.66
2023-04-18T08:59:18.302Z,101893.22
2023-04-18T09:02:06.378Z,101887.16
2023-04-18T09:04:55.644Z,101891.63
2023-04-18T09:07:41.482Z,101900.84
2023-04-18T09:10:34.612Z,101896.91
2023-04-18T09:13:38.312Z,101888.66
2023-04-18T09:16:23.491Z,101896.84
2023-04-18T09:19:18.435Z,101904.66
2023-04-18T09:22:04.673Z,101894.53
2023-04-18T09:24:53.451Z,101897.72
2023-04-18T09:27:38.169Z,101887.44
2023-04-18T09:30:32.772Z,101901.63
2023-04-18T09:33:17.780Z,101893.81
2023-04-18T09:36:20.596Z,101897.81
2023-04-18T09:39:05.284Z,101898.00
2023-04-18T09:41:59.836Z,101900.78
2023-04-18T09:45:06.730Z,101898.47
2023-04-18T09:47:53.294Z,101899.88
2023-04-18T09:50:41.168Z,101894.38
2023-04-18T09:53:26.969Z,101883.22
2023-04-18T09:56:20.892Z,101881.31
2023-04-18T09:59:09.264Z,101888.41
2023-04-18T10:01:55.900Z,101877.84
2023-04-18T10:04:42.184Z,101870.81
2023-04-18T10:07:27.542Z,101872.78
2023-04-18T10:10:13.366Z,101874.75
2023-04-18T10:12:59.961Z,101865.94
2023-04-18T10:15:45.459Z,101873.97
2023-04-18T10:18:30.790Z,101867.16
2023-04-18T10:21:15.511Z,101865.06
2023-04-18T10:24:00.589Z,101861.75
2023-04-18T10:26:47.003Z,101863.97
2023-04-18T10:29:53.889Z,101855.34
2023-04-18T10:32:39.333Z,101860.84
2023-04-18T10:35:24.219Z,101850.31
2023-04-18T10:38:16.945Z,101856.41
2023-04-18T10:41:19.215Z,101857.25
2023-04-18T10:44:10.062Z,101856.09
2023-04-18T10:46:57.853Z,101858.38
2023-04-18T10:49:53.242Z,101860.56
2023-04-18T10:52:38.919Z,101857.56
2023-04-18T10:55:28.519Z,101852.31
2023-04-18T10:58:15.281Z,101840.75
2023-04-18T11:01:03.227Z,101840.38
2023-04-18T11:03:48.186Z,101838.38
2023-04-18T11:06:32.878Z,101839.53
2023-04-18T11:09:18.235Z,101823.94
2023-04-18T11:12:09.026Z,101830.00
2023-04-18T11:14:54.256Z,101823.94
2023-04-18T11:17:40.098Z,101825.38
2023-04-18T11:20:25.450Z,101828.13
2023-04-18T11:23:20.071Z,101830.84
2023-04-18T11:26:07.363Z,101822.50
2023-04-18T11:28:56.642Z,101819.13
2023-04-18T11:31:41.715Z,101815.59
2023-04-18T11:34:31.235Z,101823.56
2023-04-18T11:37:16.262Z,101817.56
2023-04-18T11:40:02.485Z,101821.88
2023-04-18T11:42:47.282Z,101819.91
2023-04-18T11:45:32.885Z,101820.53
2023-04-18T11:48:17.735Z,101818.75
2023-04-18T11:51:02.551Z,101817.91
2023-04-18T11:53:47.572Z,101820.34
2023-04-18T11:56:34.633Z,101823.38
2023-04-18T11:59:20.930Z,101818.13
2023-04-18T12:02:16.413Z,101819.06
2023-04-18T12:05:02.388Z,101821.09
2023-04-18T12:07:47.757Z,101817.00
2023-04-18T12:10:32.998Z,101823.31
2023-04-18T12:13:24.064Z,101823.41
2023-04-18T12:16:08.848Z,101823.31
2023-04-18T12:19:00.228Z,101815.34
2023-04-18T12:22:01.288Z,101807.19
2023-04-18T12:24:46.496Z,101819.38
2023-04-18T12:27:57.987Z,101805.75
2023-04-18T12:30:42.992Z,101806.91
2023-04-18T12:33:27.904Z,101817.72
2023-04-18T12:36:12.846Z,101809.50
2023-04-18T12:38:57.942Z,101817.91
2023-04-18T12:41:43.571Z,101814.34
2023-04-18T12:44:28.482Z,101814.81
2023-04-18T12:47:13.284Z,101818.31
2023-04-18T12:49:58.255Z,101814.75
2023-04-18T12:52:43.273Z,101817.16
2023-04-18T12:55:29.102Z,101809.25
2023-04-18T12:58:18.338Z,101800.81
2023-04-18T13:01:04.618Z,101802.41
2023-04-18T13:03:59.948Z,101801.03
2023-04-18T13:06:53.491Z,101808.13
2023-04-18T13:09:38.462Z,101803.88
2023-04-18T13:12:23.403Z,101795.94
2023-04-18T13:15:09.323Z,101796.53
2023-04-18T13:17:56.260Z,101788.94
2023-04-18T13:20:41.326Z,101788.63
2023-04-18T13:23:26.438Z,101786.81
2023-04-18T13:26:11.099Z,101788.34
2023-04-18T13:28:56.223Z,101786.00
2023-04-18T13:31:41.003Z,101780.78
2023-04-18T13:34:25.967Z,101788.06
2023-04-18T13:37:10.897Z,101786.00
2023-04-18T13:39:55.866Z,101782.25
2023-04-18T13:42:40.970Z,101778.63
2023-04-18T13:45:25.733Z,101770.41
2023-04-18T13:48:10.696Z,101781.22
2023-04-18T13:50:55.582Z,101783.47
2023-04-18T13:53:40.404Z,101780.00
2023-04-18T13:56:25.843Z,101774.44
2023-04-18T13:59:10.607Z,101771.94
2023-04-18T14:01:56.191Z,101775.34
2023-04-18T14:04:41.288Z,101769.34
2023-04-18T14:07:26.645Z,101771.00
2023-04-18T14:10:11.552Z,101773.81
2023-04-18T14:12:57.441Z,101766.34
2023-04-18T14:15:42.456Z,101772.47
2023-04-18T14:18:28.386Z,101784.03
2023-04-18T14:21:13.598Z,101771.63
2023-04-18T14:23:58.684Z,101770.09
2023-04-18T14:26:43.870Z,101771.66
2023-04-18T14:29:28.551Z,101771.78
2023-04-18T14:32:13.417Z,101776.59
2023-04-18T14:34:59.112Z,101787.72
2023-04-18T14:37:43.870Z,101779.63
2023-04-18T14:40:30.827Z,101777.44
2023-04-18T14:43:16.977Z,101770.13
2023-04-18T14:46:01.826Z,101773.44
2023-04-18T14:48:47.207Z,101781.97
2023-04-18T14:51:32.174Z,101779.22
2023-04-18T14:54:17.352Z,101771.91
2023-04-18T14:57:02.256Z,101770.59
2023-04-18T14:59:47.223Z,101775.16
2023-04-18T15:02:32.442Z,101774.75
2023-04-18T15:05:20.312Z,101775.34
2023-04-18T15:08:06.703Z,101775.34
2023-04-18T15:10:51.499Z,101768.00
2023-04-18T15:13:36.418Z,101772.16
2023-04-18T15:16:21.491Z,101775.41
2023-04-18T15:19:06.429Z,101775.16
2023-04-18T15:21:52.638Z,101778.63
2023-04-18T15:24:37.361Z,101772.06
2023-04-18T15:27:22.410Z,101771.09
2023-04-18T15:30:08.129Z,101773.28
2023-04-18T15:32:53.895Z,101775.88
2023-04-18T15:35:38.667Z,101774.28
2023-04-18T15:38:23.606Z,101773.47
2023-04-18T15:41:08.510Z,101759.31
2023-04-18T15:43:53.631Z,101762.09
2023-04-18T15:46:38.763Z,101756.56
2023-04-18T15:49:23.532Z,101760.09
2023-04-18T15:52:08.716Z,101769.88
2023-04-18T15:54:54.201Z,101763.06
2023-04-18T15:57:39.881Z,101761.56
2023-04-18T16:00:24.759Z,101754.75
2023-04-18T16:03:10.177Z,101762.03
2023-04-18T16:05:55.292Z,101754.72
2023-04-18T16:08:39.978Z,101759.13
2023-04-18T16:11:28.769Z,101759.47
2023-04-18T16:14:14.123Z,101757.94
2023-04-18T16:16:59.565Z,101755.72
2023-04-18T16:19:44.393Z,101754.38
2023-04-18T16:22:29.304Z,101757.63
2023-04-18T16:25:14.587Z,101757.16
2023-04-18T16:27:59.616Z,101755.34
2023-04-18T16:30:45.561Z,101748.91
2023-04-18T16:33:30.756Z,101753.09
2023-04-18T16:36:15.638Z,101750.59
2023-04-18T16:39:00.879Z,101745.81
2023-04-18T16:41:45.654Z,101747.66
2023-04-18T16:44:30.867Z,101755.31
2023-04-18T16:47:15.825Z,101741.75
2023-04-18T16:50:00.984Z,101746.72
2023-04-18T16:52:45.809Z,101749.38
2023-04-18T16:55:31.004Z,101752.03
2023-04-18T16:58:16.455Z,101751.00
2023-04-18T17:01:01.815Z,101754.66
2023-04-18T17:03:46.867Z,101749.97
2023-04-18T17:06:32.480Z,101746.44
2023-04-18T17:09:19.621Z,101747.31
2023-04-18T17:12:04.967Z,101746.50
2023-04-18T17:14:50.051Z,101738.84
2023-04-18T17:17:35.463Z,101747.22
2023-04-18T17:20:21.189Z,101749.03
2023-04-18T17:23:05.973Z,101744.03
2023-04-18T17:25:51.291Z,101744.16
2023-04-18T17:28:36.362Z,101742.66
2023-04-18T17:31:21.412Z,101757.03
2023-04-18T17:34:06.323Z,101744.00
2023-04-18T17:36:51.549Z,101754.47
2023-04-18T17:39:36.351Z,101751.81
2023-04-18T17:42:21.320Z,101747.63
2023-04-18T17:45:08.100Z,101758.97
2023-04-18T17:47:53.657Z,101756.13
2023-04-18T17:50:39.389Z,101762.06
2023-04-18T17:53:24.297Z,101764.19
2023-04-18T17:56:10.031Z,101764.53
2023-04-18T17:58:56.803Z,101774.16
2023-04-18T18:01:41.973Z,101775.13
2023-04-18T18:04:27.672Z,101773.44
2023-04-18T18:07:12.884Z,101775.09
2023-04-18T18:09:57.868Z,101779.69
2023-04-18T18:12:42.674Z,101780.00
2023-04-18T18:15:28.301Z,101782.31
2023-04-18T18:18:12.981Z,101782.78
2023-04-18T18:20:58.616Z,101787.28
2023-04-18T18:23:43.871Z,101784.56
2023-04-18T18:26:29.007Z,101794.06
2023-04-18T18:29:14.091Z,101790.72
2023-04-18T18:31:59.954Z,101789.53
2023-04-18T18:34:44.865Z,101789.59
2023-04-18T18:37:29.922Z,101787.94
2023-04-18T18:40:15.133Z,101788.38
2023-04-18T18:43:00.589Z,101784.19
2023-04-18T18:45:45.605Z,101795.81
2023-04-18T18:48:32.660Z,101795.94
2023-04-18T18:51:18.971Z,101804.94
2023-04-18T18:54:04.077Z,101809.41
2023-04-18T18:56:49.215Z,101806.50
2023-04-18T18:59:33.993Z,101820.00
2023-04-18T19:02:19.005Z,101825.91
2023-04-18T19:05:06.259Z,101829.03
2023-04-18T19:07:51.488Z,101817.84
2023-04-18T19:10:36.762Z,101823.00
2023-04-18T19:13:23.522Z,101834.28
2023-04-18T19:16:08.269Z,101833.16
2023-04-18T19:18:53.489Z,101832.44
2023-04-18T19:21:39.653Z,101833.56
2023-04-18T19:24:24.876Z,101837.63
2023-04-18T19:27:09.819Z,101842.78
2023-04-18T19:29:54.827Z,101843.09
2023-04-18T19:32:39.835Z,101849.25
2023-04-18T19:35:24.481Z,101851.53
2023-04-18T19:38:09.244Z,101852.09
2023-04-18T19:40:54.080Z,101854.06
2023-04-18T19:43:40.209Z,101853.81
2023-04-18T19:46:25.143Z,101855.78
2023-04-18T19:49:10.137Z,101860.28
2023-04-18T19:51:55.372Z,101861.41
2023-04-18T19:54:40.135Z,101857.78
2023-04-18T19:57:26.233Z,101853.44
2023-04-18T20:00:12.891Z,101856.63
2023-04-18T20:02:58.889Z,101862.63
2023-04-18T20:05:44.153Z,101857.03
2023-04-18T20:08:29.313Z,101871.34
2023-04-18T20:11:14.384Z,101867.53
2023-04-18T20:13:59.526Z,101870.63
2023-04-18T20:16:45.734Z,101866.16
2023-04-18T20:19:31.220Z,101871.34
2023-04-18T20:22:16.570Z,101869.94
2023-04-18T20:25:01.709Z,101861.28
2023-04-18T20:27:46.622Z,101869.00
2023-04-18T20:30:32.217Z,101861.69
2023-04-18T20:33:16.877Z,101864.53
2023-04-18T20:36:01.980Z,101870.13
2023-04-18T20:38:46.993Z,101864.97
2023-04-18T20:41:34.526Z,101867.75
2023-04-18T20:44:20.831Z,101869.75
2023-04-18T20:47:06.245Z,101873.38
2023-04-18T20:49:51.414Z,101870.88
2023-04-18T20:52:36.432Z,101864.59
2023-04-18T20:55:21.444Z,101880.66
2023-04-18T20:58:06.286Z,101881.53
2023-04-18T21:00:51.972Z,101882.50
2023-04-18T21:03:36.891Z,101887.97
2023-04-18T21:06:22.270Z,101886.28
2023-04-18T21:09:07.390Z,101889.41
2023-04-18T21:11:52.341Z,101891.38
2023-04-18T21:14:37.149Z,101888.72
2023-04-18T21:17:22.466Z,101892.34
2023-04-18T21:20:08.929Z,101894.16
2023-04-18T21:22:53.691Z,101903.94
2023-04-18T21:25:38.793Z,101901.56
2023-04-18T21:28:23.492Z,101900.22
2023-04-18T21:31:08.450Z,101898.41
2023-04-18T21:33:55.009Z,101892.34
2023-04-18T21:36:40.528Z,101899.81
2023-04-18T21:39:27.215Z,101903.31
2023-04-18T21:42:11.916Z,101900.78
2023-04-18T21:44:57.051Z,101898.81
2023-04-18T21:47:41.838Z,101894.09
2023-04-18T21:50:27.077Z,101909.19
2023-04-18T21:53:11.736Z,101902.47
2023-04-18T21:55:56.969Z,101894.66
2023-04-18T21:58:42.154Z,101900.09
2023-04-18T22:01:26.963Z,101896.75
2023-04-18T22:04:12.266Z,101902.91
2023-04-18T22:06:57.440Z,101896.06
2023-04-18T22:09:42.133Z,101892.72
2023-04-18T22:12:27.251Z,101887.81
2023-04-18T22:15:12.225Z,101894.81
2023-04-18T22:17:58.872Z,101892.16
2023-04-18T22:20:44.604Z,101905.63
2023-04-18T22:23:30.441Z,101896.06
2023-04-18T22:26:15.254Z,101899.75
2023-04-18T22:29:00.382Z,101896.22
2023-04-18T22:31:45.614Z,101898.03
2023-04-18T22:34:30.394Z,101899.34
2023-04-18T22:37:15.792Z,101898.59
2023-04-18T22:40:01.345Z,101901.69
2023-04-18T22:42:46.208Z,101902.41
2023-04-18T22:45:31.262Z,101903.53
2023-04-18T22:48:16.963Z,101904.53
2023-04-18T22:51:02.432Z,101898.34
2023-04-18T22:53:47.492Z,101909.97
2023-04-18T22:56:32.576Z,101907.31
2023-04-18T22:59:17.664Z,101903.00
2023-04-18T23:02:02.780Z,101907.03
2023-04-18T23:04:49.143Z,101910.66
2023-04-18T23:07:33.975Z,101907.19
2023-04-18T23:10:21.284Z,101919.75
2023-04-18T23:13:06.316Z,101915.56
2023-04-18T23:15:51.185Z,101917.09
2023-04-18T23:18:36.081Z,101906.19
2023-04-18T23:21:21.133Z,101914.19
2023-04-18T23:24:07.096Z,101912.34
2023-04-18T23:26:52.119Z,101904.38
2023-04-18T23:29:38.918Z,101910.81
2023-04-18T23:32:23.991Z,101915.13
2023-04-18T23:35:10.358Z,101909.13
2023-04-18T23:37:56.929Z,101911.91
2023-04-18T23:40:41.615Z,101914.88
2023-04-18T23:43:26.699Z,101905.78
2023-04-18T23:46:12.899Z,101907.88
2023-04-18T23:48:57.946Z,101906.06
2023-04-18T23:51:42.916Z,101899.22
2023-04-18T23:54:27.897Z,101907.31
2023-04-18T23:57:12.597Z,101902.84
2023-04-18T23:59:57.669Z,101903.97
